Time;durP1;ratioP1;P1;durP2;ratioP2;P2;SDS_P1;SDS_P2;PMS_P1;PMS_P2;Temp;Humidity;BMP_temperature;BMP_pressure;BME280_temperature;BME280_humidity;BME280_pressure;Samples;Min_cycle;Max_cycle;Signal;HPM_P1;HPM_P2
2022/08/17 00:02:10;;;;;;;39.13;20.80;;;;;;;;;;5064060;28;20044;-41
2022/08/17 00:04:36;;;;;;;38.67;20.35;;;;;;;;;;5061035;28;20565;-40
2022/08/17 00:07:03;;;;;;;38.13;20.33;;;;;;;;;;5060526;28;20045;-42
2022/08/17 00:09:29;;;;;;;38.60;20.10;;;;;;;;;;5051637;28;20044;-42
2022/08/17 00:11:56;;;;;;;37.85;21.50;;;;;;;;;;5073948;28;20058;-42
2022/08/17 00:14:23;;;;;;;36.67;19.90;;;;;;;;;;5059149;28;20041;-42
2022/08/17 00:16:52;;;;;;;40.25;21.65;;;;;;;;;;5070310;28;20689;-42
2022/08/17 00:19:21;;;;;;;41.55;21.77;;;;;;;;;;5074340;28;20036;-43
2022/08/17 00:21:47;;;;;;;41.97;21.98;;;;;;;;;;5043759;28;20664;-40
2022/08/17 00:24:14;;;;;;;42.63;22.17;;;;;;;;;;5077528;28;20143;-40
2022/08/17 00:26:41;;;;;;;41.00;20.63;;;;;;;;;;5054089;28;20029;-42
2022/08/17 00:29:07;;;;;;;38.30;19.50;;;;;;;;;;5065016;28;20036;-41
2022/08/17 00:31:34;;;;;;;41.67;22.27;;;;;;;;;;5083133;28;20036;-40
2022/08/17 00:34:03;;;;;;;43.15;22.75;;;;;;;;;;5041547;28;20105;-40
2022/08/17 00:36:30;;;;;;;42.40;21.92;;;;;;;;;;5064329;28;20043;-41
2022/08/17 00:38:57;;;;;;;45.40;23.63;;;;;;;;;;5047964;28;20067;-40
2022/08/17 00:41:25;;;;;;;45.75;22.88;;;;;;;;;;5064214;28;20363;-40
2022/08/17 00:43:53;;;;;;;45.67;23.42;;;;;;;;;;5064027;28;20082;-41
2022/08/17 00:46:21;;;;;;;44.97;23.55;;;;;;;;;;5061478;28;20044;-41
2022/08/17 00:48:48;;;;;;;46.38;24.02;;;;;;;;;;5054013;28;20052;-39
2022/08/17 00:51:19;;;;;;;48.13;24.47;;;;;;;;;;5066900;28;20036;-41
2022/08/17 00:53:49;;;;;;;43.88;23.52;;;;;;;;;;5076094;28;20044;-40
2022/08/17 00:56:19;;;;;;;44.92;23.40;;;;;;;;;;5057337;28;20446;-40
2022/08/17 00:58:47;;;;;;;45.97;25.10;;;;;;;;;;5060410;28;20082;-41
2022/08/17 01:01:14;;;;;;;44.95;23.05;;;;;;;;;;5065237;28;20498;-41
2022/08/17 01:03:42;;;;;;;45.70;23.33;;;;;;;;;;5071714;28;20063;-42
2022/08/17 01:06:09;;;;;;;41.58;22.25;;;;;;;;;;5059704;28;20040;-42
2022/08/17 01:08:39;;;;;;;41.75;22.50;;;;;;;;;;5060139;28;20094;-41
2022/08/17 01:11:06;;;;;;;42.67;22.13;;;;;;;;;;5050865;28;20095;-40
2022/08/17 01:13:35;;;;;;;42.50;23.40;;;;;;;;;;5075440;28;20105;-39
2022/08/17 01:16:07;;;;;;;44.67;22.80;;;;;;;;;;5053313;28;20041;-41
2022/08/17 01:18:34;;;;;;;41.95;21.88;;;;;;;;;;5063433;28;20446;-39
2022/08/17 01:21:03;;;;;;;43.83;23.27;;;;;;;;;;5059925;28;20089;-39
2022/08/17 01:23:31;;;;;;;40.38;22.45;;;;;;;;;;5074571;28;20036;-42
2022/08/17 01:26:00;;;;;;;39.90;21.92;;;;;;;;;;5076735;28;20052;-40
2022/08/17 01:28:29;;;;;;;39.80;22.80;;;;;;;;;;5066128;28;20047;-40
2022/08/17 01:30:57;;;;;;;39.05;23.20;;;;;;;;;;5050293;28;20081;-41
2022/08/17 01:33:24;;;;;;;36.75;21.63;;;;;;;;;;5058470;28;20037;-40
2022/08/17 01:35:50;;;;;;;39.60;23.08;;;;;;;;;;5064880;28;20119;-40
2022/08/17 01:38:18;;;;;;;40.80;22.83;;;;;;;;;;5049298;28;20604;-41
2022/08/17 01:40:49;;;;;;;37.70;21.43;;;;;;;;;;5066431;28;20044;-39
2022/08/17 01:43:20;;;;;;;40.53;22.77;;;;;;;;;;5069734;28;20040;-41
2022/08/17 01:45:47;;;;;;;40.40;23.33;;;;;;;;;;5055984;28;20433;-40
2022/08/17 01:48:14;;;;;;;40.47;24.45;;;;;;;;;;5067368;28;20108;-41
2022/08/17 01:50:42;;;;;;;41.17;23.73;;;;;;;;;;5071717;28;20043;-39
2022/08/17 01:53:12;;;;;;;42.30;24.63;;;;;;;;;;5070456;28;20032;-42
2022/08/17 01:55:40;;;;;;;39.90;22.60;;;;;;;;;;5064952;28;20639;-42
2022/08/17 01:58:08;;;;;;;45.83;24.30;;;;;;;;;;5075576;28;20040;-39
2022/08/17 02:00:35;;;;;;;40.42;23.80;;;;;;;;;;5063177;28;20064;-40
2022/08/17 02:03:02;;;;;;;41.42;23.08;;;;;;;;;;5066760;28;20128;-42
2022/08/17 02:05:28;;;;;;;38.87;23.20;;;;;;;;;;5066748;28;20070;-39
2022/08/17 02:07:54;;;;;;;42.35;25.00;;;;;;;;;;5073418;28;20049;-41
2022/08/17 02:10:21;;;;;;;40.15;24.00;;;;;;;;;;5062825;28;20568;-42
2022/08/17 02:12:49;;;;;;;41.78;23.77;;;;;;;;;;5060821;28;20478;-40
2022/08/17 02:15:17;;;;;;;40.95;23.83;;;;;;;;;;5069273;28;20181;-41
2022/08/17 02:17:44;;;;;;;37.77;22.70;;;;;;;;;;5062165;28;20380;-41
2022/08/17 02:20:11;;;;;;;41.72;23.77;;;;;;;;;;5066350;28;20041;-40
2022/08/17 02:22:39;;;;;;;40.35;23.00;;;;;;;;;;5067176;28;20039;-40
2022/08/17 02:25:08;;;;;;;36.35;21.98;;;;;;;;;;5069768;28;20049;-40
2022/08/17 02:27:35;;;;;;;37.75;22.08;;;;;;;;;;5062603;28;20032;-39
2022/08/17 02:30:02;;;;;;;36.53;21.13;;;;;;;;;;5077827;28;20051;-40
2022/08/17 02:32:30;;;;;;;41.63;22.88;;;;;;;;;;5059194;28;20063;-40
2022/08/17 02:34:56;;;;;;;40.45;23.38;;;;;;;;;;5063010;28;22298;-40
2022/08/17 02:37:23;;;;;;;40.80;21.75;;;;;;;;;;5050083;28;20094;-41
2022/08/17 02:39:50;;;;;;;42.60;22.77;;;;;;;;;;5065709;28;20080;-43
2022/08/17 02:42:17;;;;;;;40.40;22.23;;;;;;;;;;5075967;28;20036;-40
2022/08/17 02:44:43;;;;;;;41.03;22.52;;;;;;;;;;5066596;28;20527;-42
2022/08/17 02:47:11;;;;;;;39.38;22.38;;;;;;;;;;5065843;28;20043;-43
2022/08/17 02:49:39;;;;;;;42.70;22.33;;;;;;;;;;5072079;28;20032;-40
2022/08/17 02:52:07;;;;;;;40.97;23.10;;;;;;;;;;5067050;28;20658;-41
2022/08/17 02:54:34;;;;;;;43.43;22.47;;;;;;;;;;5063317;28;20062;-41
2022/08/17 02:57:01;;;;;;;40.55;21.65;;;;;;;;;;5065658;28;20040;-41
2022/08/17 02:59:28;;;;;;;42.10;21.48;;;;;;;;;;5062671;28;20761;-42
2022/08/17 03:01:54;;;;;;;44.20;22.63;;;;;;;;;;5072076;28;20040;-40
2022/08/17 03:04:21;;;;;;;43.63;23.40;;;;;;;;;;5071649;28;20032;-42
2022/08/17 03:06:48;;;;;;;41.13;22.67;;;;;;;;;;5073297;28;20037;-39
2022/08/17 03:09:15;;;;;;;41.33;22.70;;;;;;;;;;5054928;28;20044;-42
2022/08/17 03:11:42;;;;;;;43.15;23.60;;;;;;;;;;5057079;28;20038;-39
2022/08/17 03:14:08;;;;;;;45.08;24.02;;;;;;;;;;5069574;28;20036;-40
2022/08/17 03:16:35;;;;;;;41.65;22.83;;;;;;;;;;5066386;28;20044;-41
2022/08/17 03:19:01;;;;;;;42.67;24.13;;;;;;;;;;5068660;28;20554;-41
2022/08/17 03:21:28;;;;;;;41.53;22.50;;;;;;;;;;5057531;28;20763;-41
2022/08/17 03:23:56;;;;;;;42.67;23.02;;;;;;;;;;5057616;28;20040;-39
2022/08/17 03:26:22;;;;;;;43.95;24.02;;;;;;;;;;5070478;28;20048;-40
2022/08/17 03:28:49;;;;;;;41.47;21.63;;;;;;;;;;5065493;28;20075;-39
2022/08/17 03:31:17;;;;;;;44.73;23.97;;;;;;;;;;5079065;28;20036;-41
2022/08/17 03:33:43;;;;;;;43.05;22.17;;;;;;;;;;5063710;28;20452;-40
2022/08/17 03:36:10;;;;;;;46.33;24.85;;;;;;;;;;5071428;28;20047;-41
2022/08/17 03:38:37;;;;;;;43.92;23.25;;;;;;;;;;5064874;28;20083;-41
2022/08/17 03:41:06;;;;;;;41.28;23.30;;;;;;;;;;5058950;28;20036;-41
2022/08/17 03:43:33;;;;;;;37.97;21.93;;;;;;;;;;5059226;28;20044;-39
2022/08/17 03:57:01;;;;;;;43.50;22.73;;;;;;;;;;5051403;28;20085;-42
2022/08/17 03:59:28;;;;;;;40.05;21.05;;;;;;;;;;5066639;28;20120;-40
2022/08/17 04:01:56;;;;;;;40.88;22.55;;;;;;;;;;5069561;28;20048;-39
2022/08/17 04:04:22;;;;;;;38.90;21.38;;;;;;;;;;5047530;28;20143;-41
2022/08/17 04:06:49;;;;;;;44.15;22.42;;;;;;;;;;5059528;28;20040;-40
2022/08/17 04:09:15;;;;;;;36.47;19.83;;;;;;;;;;5057446;28;20036;-40
2022/08/17 04:11:42;;;;;;;35.20;19.38;;;;;;;;;;5065631;28;20036;-40
2022/08/17 04:14:10;;;;;;;38.33;20.65;;;;;;;;;;5065738;28;20047;-39
2022/08/17 04:16:38;;;;;;;36.20;19.48;;;;;;;;;;5073590;28;20074;-42
2022/08/17 04:19:05;;;;;;;38.97;19.60;;;;;;;;;;5063396;28;20045;-43
2022/08/17 04:21:31;;;;;;;35.07;19.00;;;;;;;;;;5065871;28;20051;-39
2022/08/17 04:23:58;;;;;;;34.17;19.55;;;;;;;;;;5054056;28;20098;-42
2022/08/17 04:26:24;;;;;;;34.90;19.15;;;;;;;;;;5072579;28;20048;-40
2022/08/17 04:28:51;;;;;;;35.35;19.10;;;;;;;;;;5069507;28;20044;-40
2022/08/17 04:31:19;;;;;;;32.85;17.90;;;;;;;;;;5072859;28;20036;-40
2022/08/17 04:33:45;;;;;;;31.27;17.20;;;;;;;;;;5056779;28;20029;-39
2022/08/17 04:36:13;;;;;;;32.22;16.95;;;;;;;;;;5054883;28;20037;-41
2022/08/17 04:38:40;;;;;;;30.63;17.80;;;;;;;;;;5059509;28;20215;-43
2022/08/17 04:43:54;;;;;;;30.52;16.85;;;;;;;;;;5063217;28;20577;-39
2022/08/17 04:46:24;;;;;;;32.67;17.13;;;;;;;;;;5068699;28;20037;-42
2022/08/17 04:48:53;;;;;;;29.80;16.50;;;;;;;;;;5065932;28;20501;-40
2022/08/17 04:51:20;;;;;;;34.42;16.67;;;;;;;;;;5056237;28;20044;-43
2022/08/17 04:53:48;;;;;;;31.13;17.60;;;;;;;;;;5069136;28;20041;-39
2022/08/17 04:56:15;;;;;;;31.00;16.67;;;;;;;;;;5063828;28;20044;-39
2022/08/17 04:58:42;;;;;;;31.23;16.27;;;;;;;;;;5068994;28;20036;-41
2022/08/17 05:01:09;;;;;;;30.92;16.42;;;;;;;;;;5063057;28;20505;-39
2022/08/17 05:03:37;;;;;;;36.03;17.85;;;;;;;;;;5073274;28;20051;-43
2022/08/17 05:06:03;;;;;;;33.72;17.27;;;;;;;;;;5061869;28;20032;-39
2022/08/17 05:08:30;;;;;;;31.95;17.33;;;;;;;;;;5074839;28;20036;-40
2022/08/17 05:10:56;;;;;;;33.57;17.00;;;;;;;;;;5052657;28;20051;-41
2022/08/17 05:13:24;;;;;;;34.97;18.02;;;;;;;;;;5076897;28;20044;-40
2022/08/17 05:15:53;;;;;;;41.03;17.58;;;;;;;;;;5062398;28;20199;-41
2022/08/17 05:18:20;;;;;;;32.45;16.23;;;;;;;;;;5078372;28;20052;-41
2022/08/17 05:20:48;;;;;;;35.70;17.30;;;;;;;;;;5065937;28;20040;-40
2022/08/17 05:23:16;;;;;;;34.17;17.47;;;;;;;;;;5064529;28;20066;-40
2022/08/17 05:25:44;;;;;;;32.88;16.65;;;;;;;;;;5060539;28;20052;-42
2022/08/17 05:28:11;;;;;;;31.92;16.63;;;;;;;;;;5078544;28;20085;-41
2022/08/17 05:30:38;;;;;;;30.27;15.77;;;;;;;;;;5076684;28;20077;-40
2022/08/17 05:33:06;;;;;;;31.67;16.00;;;;;;;;;;5068666;28;20156;-45
2022/08/17 05:35:34;;;;;;;30.17;14.33;;;;;;;;;;5075615;28;20559;-40
2022/08/17 05:38:02;;;;;;;29.23;14.90;;;;;;;;;;5063176;28;20037;-40
2022/08/17 05:40:29;;;;;;;27.55;14.50;;;;;;;;;;5074998;28;20438;-41
2022/08/17 05:43:03;;;;;;;30.15;15.15;;;;;;;;;;5050737;28;20044;-40
2022/08/17 05:45:30;;;;;;;29.52;14.10;;;;;;;;;;5067296;28;20541;-40
2022/08/17 05:47:56;;;;;;;28.90;14.67;;;;;;;;;;5070351;28;20152;-42
2022/08/17 05:50:25;;;;;;;31.35;14.48;;;;;;;;;;5042045;28;20029;-39
2022/08/17 05:52:57;;;;;;;29.45;14.82;;;;;;;;;;5065493;28;20486;-43
2022/08/17 05:55:28;;;;;;;28.77;13.30;;;;;;;;;;5078517;28;20496;-41
2022/08/17 05:57:59;;;;;;;26.63;13.02;;;;;;;;;;5063444;28;20060;-40
2022/08/17 06:00:27;;;;;;;25.90;13.30;;;;;;;;;;5077311;28;20096;-41
2022/08/17 06:02:58;;;;;;;26.63;13.57;;;;;;;;;;5053791;28;20118;-42
2022/08/17 06:05:33;;;;;;;25.73;13.00;;;;;;;;;;5077521;28;20044;-43
2022/08/17 06:08:02;;;;;;;24.27;12.15;;;;;;;;;;5061618;28;20139;-42
2022/08/17 06:10:34;;;;;;;26.60;13.80;;;;;;;;;;5051419;28;20593;-42
2022/08/17 06:13:05;;;;;;;23.00;12.10;;;;;;;;;;5064278;28;20090;-42
2022/08/17 06:15:34;;;;;;;26.83;12.15;;;;;;;;;;5058491;28;20045;-42
2022/08/17 06:18:01;;;;;;;30.27;13.25;;;;;;;;;;5072711;28;20485;-41
2022/08/17 06:20:32;;;;;;;24.98;12.60;;;;;;;;;;5056399;28;20040;-42
2022/08/17 06:23:02;;;;;;;23.65;12.52;;;;;;;;;;5065407;28;20075;-40
2022/08/17 06:25:33;;;;;;;25.07;12.40;;;;;;;;;;5062636;28;20521;-42
2022/08/17 06:28:02;;;;;;;28.27;14.00;;;;;;;;;;5070399;28;20090;-42
2022/08/17 06:30:30;;;;;;;28.88;13.27;;;;;;;;;;5063906;28;20062;-42
2022/08/17 06:32:59;;;;;;;32.72;14.80;;;;;;;;;;5070934;28;20033;-43
2022/08/17 06:35:30;;;;;;;28.42;13.98;;;;;;;;;;5061145;28;20036;-42
2022/08/17 06:38:02;;;;;;;36.43;14.37;;;;;;;;;;5068448;28;20052;-41
2022/08/17 06:40:46;;;;;;;31.30;14.63;;;;;;;;;;5072190;28;20041;-41
2022/08/17 06:43:20;;;;;;;30.58;14.80;;;;;;;;;;5053220;28;22053;-42
2022/08/17 06:45:50;;;;;;;30.95;14.25;;;;;;;;;;5066597;28;20052;-44
2022/08/17 06:48:23;;;;;;;34.78;16.65;;;;;;;;;;5068040;28;20036;-41
2022/08/17 06:50:52;;;;;;;34.60;16.10;;;;;;;;;;5058524;28;20125;-44
2022/08/17 06:53:21;;;;;;;36.22;16.10;;;;;;;;;;5060503;28;20099;-41
2022/08/17 06:55:51;;;;;;;34.78;15.48;;;;;;;;;;5057692;28;20040;-40
2022/08/17 06:58:22;;;;;;;36.08;16.63;;;;;;;;;;5064645;28;20052;-41
2022/08/17 07:00:51;;;;;;;34.35;15.50;;;;;;;;;;5072611;28;20388;-40
2022/08/17 07:03:28;;;;;;;33.93;16.67;;;;;;;;;;5061687;28;20090;-42
2022/08/17 07:05:56;;;;;;;34.78;16.05;;;;;;;;;;5078087;28;20058;-44
2022/08/17 07:08:32;;;;;;;34.22;15.75;;;;;;;;;;5057256;28;20628;-43
2022/08/17 07:11:01;;;;;;;36.08;16.92;;;;;;;;;;5066951;28;20036;-40
2022/08/17 07:13:33;;;;;;;37.22;16.67;;;;;;;;;;5065808;28;20702;-43
2022/08/17 07:16:07;;;;;;;33.10;15.67;;;;;;;;;;5064802;28;20044;-46
2022/08/17 07:18:33;;;;;;;38.88;16.38;;;;;;;;;;5047609;28;20056;-42
2022/08/17 07:21:07;;;;;;;36.47;16.98;;;;;;;;;;5072544;28;20062;-41
2022/08/17 07:23:38;;;;;;;44.78;19.33;;;;;;;;;;5051535;28;20047;-41
2022/08/17 07:26:05;;;;;;;39.13;18.13;;;;;;;;;;5064176;28;20060;-43
2022/08/17 07:28:34;;;;;;;39.10;17.47;;;;;;;;;;4347161;28;10000646;-43
2022/08/17 07:31:00;;;;;;;36.05;18.00;;;;;;;;;;5058775;28;20056;-43
2022/08/17 07:33:28;;;;;;;35.50;16.17;;;;;;;;;;5043458;28;20044;-42
2022/08/17 07:35:56;;;;;;;35.75;17.17;;;;;;;;;;5063597;28;20053;-41
2022/08/17 07:38:26;;;;;;;36.85;17.58;;;;;;;;;;5054950;28;20627;-40
2022/08/17 07:41:01;;;;;;;35.35;15.63;;;;;;;;;;5069485;28;20099;-42
2022/08/17 07:43:27;;;;;;;36.65;16.27;;;;;;;;;;5040973;28;20067;-40
2022/08/17 07:49:15;;;;;;;35.13;17.33;;;;;;;;;;5060948;28;20346;-43
2022/08/17 07:51:55;;;;;;;38.63;16.52;;;;;;;;;;5057450;28;20086;-41
2022/08/17 07:54:23;;;;;;;34.17;16.02;;;;;;;;;;5058197;28;20097;-41
2022/08/17 07:56:52;;;;;;;33.03;16.15;;;;;;;;;;5049741;28;20040;-40
2022/08/17 07:59:19;;;;;;;36.80;15.77;;;;;;;;;;5056695;28;20044;-43
2022/08/17 08:02:02;;;;;;;35.63;16.02;;;;;;;;;;5066849;28;20052;-42
2022/08/17 08:04:33;;;;;;;33.63;16.17;;;;;;;;;;4709056;28;9999889;-41
2022/08/17 08:07:02;;;;;;;35.47;15.63;;;;;;;;;;5021712;28;20036;-41
2022/08/17 08:09:31;;;;;;;37.58;16.20;;;;;;;;;;5055413;28;20085;-41
2022/08/17 08:11:59;;;;;;;35.63;15.70;;;;;;;;;;5048509;28;20108;-40
2022/08/17 08:14:28;;;;;;;38.90;16.63;;;;;;;;;;5059494;28;20050;-42
2022/08/17 08:17:01;;;;;;;33.93;15.73;;;;;;;;;;5063899;28;20063;-40
2022/08/17 08:19:28;;;;;;;40.75;16.38;;;;;;;;;;5065914;28;20641;-43
2022/08/17 08:22:00;;;;;;;38.00;16.70;;;;;;;;;;5054816;28;20048;-42
2022/08/17 08:24:39;;;;;;;39.05;17.40;;;;;;;;;;5063624;28;20068;-44
2022/08/17 08:27:10;;;;;;;34.13;15.95;;;;;;;;;;5033141;28;20133;-41
2022/08/17 08:29:43;;;;;;;34.67;15.93;;;;;;;;;;5066442;28;20469;-43
2022/08/17 08:32:18;;;;;;;35.10;16.33;;;;;;;;;;5052817;28;20036;-40
2022/08/17 08:34:49;;;;;;;35.00;14.43;;;;;;;;;;5060146;28;20481;-41
2022/08/17 08:37:19;;;;;;;30.90;14.00;;;;;;;;;;5041033;28;20094;-41
2022/08/17 08:39:51;;;;;;;32.35;12.23;;;;;;;;;;5061727;28;20051;-41
2022/08/17 08:42:22;;;;;;;28.40;12.40;;;;;;;;;;5042916;28;20501;-42
2022/08/17 08:44:54;;;;;;;28.88;12.07;;;;;;;;;;5062651;28;20042;-41
2022/08/17 08:47:28;;;;;;;28.70;11.82;;;;;;;;;;5048969;28;20031;-43
2022/08/17 08:50:13;;;;;;;22.90;10.68;;;;;;;;;;5049850;28;21077;-40
2022/08/17 08:52:44;;;;;;;24.80;11.10;;;;;;;;;;5055289;28;20048;-43
2022/08/17 08:55:15;;;;;;;22.30;10.57;;;;;;;;;;5043813;28;20040;-42
2022/08/17 08:57:45;;;;;;;21.30;10.88;;;;;;;;;;5049761;28;20152;-44
2022/08/17 09:00:14;;;;;;;25.33;10.23;;;;;;;;;;5053248;28;20363;-42
2022/08/17 09:02:56;;;;;;;26.40;10.63;;;;;;;;;;5053057;28;20036;-42
2022/08/17 09:05:30;;;;;;;23.05;9.88;;;;;;;;;;5058763;28;20044;-41
2022/08/17 09:08:01;;;;;;;26.17;9.83;;;;;;;;;;5061200;28;20032;-41
2022/08/17 09:10:30;;;;;;;22.92;9.52;;;;;;;;;;5056542;28;20036;-41
2022/08/17 09:13:03;;;;;;;26.95;11.43;;;;;;;;;;5043426;28;20044;-41
2022/08/17 09:15:34;;;;;;;21.60;9.45;;;;;;;;;;5053486;28;20032;-42
2022/08/17 09:18:10;;;;;;;19.65;8.70;;;;;;;;;;5062943;28;20056;-40
2022/08/17 09:20:41;;;;;;;22.53;9.00;;;;;;;;;;5060255;28;20057;-41
2022/08/17 09:23:10;;;;;;;25.80;9.15;;;;;;;;;;5063784;28;20091;-42
2022/08/17 09:25:48;;;;;;;20.77;9.85;;;;;;;;;;5028861;28;20056;-41
2022/08/17 09:28:18;;;;;;;18.92;7.75;;;;;;;;;;5072149;28;20068;-42
2022/08/17 09:30:45;;;;;;;21.25;9.25;;;;;;;;;;5057549;28;20104;-41
2022/08/17 09:33:17;;;;;;;17.47;8.07;;;;;;;;;;5075073;28;20056;-40
2022/08/17 09:35:46;;;;;;;17.13;8.23;;;;;;;;;;5065796;28;20353;-42
2022/08/17 09:38:19;;;;;;;19.00;7.82;;;;;;;;;;5064656;28;20044;-40
2022/08/17 09:40:48;;;;;;;17.77;7.70;;;;;;;;;;5051576;28;20444;-46
2022/08/17 09:43:19;;;;;;;17.75;7.32;;;;;;;;;;5059459;28;20043;-42
2022/08/17 09:45:48;;;;;;;23.60;7.73;;;;;;;;;;5068696;28;20066;-40
2022/08/17 09:48:18;;;;;;;17.50;7.50;;;;;;;;;;5068753;28;20369;-43
2022/08/17 09:50:46;;;;;;;16.25;7.43;;;;;;;;;;5063424;28;20099;-40
2022/08/17 09:53:12;;;;;;;13.30;6.95;;;;;;;;;;5065887;28;20101;-40
2022/08/17 09:55:48;;;;;;;19.52;7.30;;;;;;;;;;5060914;28;20063;-40
2022/08/17 09:58:17;;;;;;;16.00;7.50;;;;;;;;;;5079570;28;20033;-41
2022/08/17 10:00:45;;;;;;;17.98;6.90;;;;;;;;;;5065341;28;20458;-43
2022/08/17 10:03:42;;;;;;;17.60;7.32;;;;;;;;;;5019339;27;10000449;-41
2022/08/17 10:06:13;;;;;;;17.73;6.53;;;;;;;;;;5065679;28;20334;-42
2022/08/17 10:08:42;;;;;;;15.50;6.50;;;;;;;;;;5058199;28;20036;-42
2022/08/17 10:11:23;;;;;;;19.40;7.18;;;;;;;;;;5059437;28;20428;-42
2022/08/17 10:14:01;;;;;;;16.60;6.72;;;;;;;;;;5064021;28;20043;-41
2022/08/17 10:16:31;;;;;;;16.23;6.90;;;;;;;;;;5047654;28;20060;-41
2022/08/17 10:19:07;;;;;;;14.23;6.50;;;;;;;;;;5069336;28;20040;-41
2022/08/17 10:27:13;;;;;;;17.13;6.95;;;;;;;;;;5062647;28;20056;-41
2022/08/17 10:29:41;;;;;;;15.15;6.55;;;;;;;;;;5063738;28;20044;-41
2022/08/17 10:32:11;;;;;;;16.75;7.45;;;;;;;;;;5059445;28;20036;-40
2022/08/17 10:34:50;;;;;;;15.77;6.47;;;;;;;;;;5073769;28;20040;-44
2022/08/17 10:37:40;;;;;;;17.27;6.60;;;;;;;;;;5060840;28;20050;-41
2022/08/17 10:40:16;;;;;;;15.93;6.30;;;;;;;;;;5068918;28;20040;-40
2022/08/17 10:42:47;;;;;;;13.00;6.00;;;;;;;;;;5068058;28;20092;-40
2022/08/17 10:45:19;;;;;;;17.20;6.03;;;;;;;;;;5069210;28;20400;-42
2022/08/17 10:48:06;;;;;;;12.33;6.30;;;;;;;;;;5075780;28;20036;-40
2022/08/17 10:50:46;;;;;;;13.43;5.50;;;;;;;;;;5060524;28;20045;-41
2022/08/17 10:53:40;;;;;;;18.83;6.85;;;;;;;;;;5054349;28;20425;-40
2022/08/17 10:56:22;;;;;;;14.23;6.28;;;;;;;;;;5063829;28;20071;-40
2022/08/17 10:58:52;;;;;;;15.20;7.35;;;;;;;;;;5069512;28;20070;-43
2022/08/17 11:01:19;;;;;;;15.40;5.70;;;;;;;;;;5056072;28;20135;-40
2022/08/17 11:03:53;;;;;;;14.00;5.75;;;;;;;;;;5072351;28;20040;-42
2022/08/17 11:06:24;;;;;;;15.27;6.03;;;;;;;;;;5066605;28;20040;-44
2022/08/17 11:09:08;;;;;;;15.68;6.60;;;;;;;;;;5067639;28;20040;-43
2022/08/17 11:11:46;;;;;;;14.23;6.18;;;;;;;;;;5068723;28;20112;-41
2022/08/17 11:14:22;;;;;;;15.30;6.07;;;;;;;;;;5065169;28;20062;-42
2022/08/17 11:17:03;;;;;;;11.95;5.68;;;;;;;;;;5070007;28;20067;-41
2022/08/17 11:19:48;;;;;;;19.17;6.70;;;;;;;;;;5076394;28;20044;-43
2022/08/17 11:22:36;;;;;;;13.55;5.65;;;;;;;;;;5072295;28;20066;-42
2022/08/17 11:25:16;;;;;;;12.02;5.65;;;;;;;;;;5036822;28;20066;-42
2022/08/17 11:27:45;;;;;;;13.10;5.87;;;;;;;;;;5068246;28;20052;-43
2022/08/17 11:30:13;;;;;;;13.57;5.75;;;;;;;;;;5045097;28;20044;-43
2022/08/17 11:32:41;;;;;;;12.35;5.97;;;;;;;;;;5058170;28;20043;-45
2022/08/17 11:35:10;;;;;;;15.93;6.63;;;;;;;;;;5062604;28;20056;-43
2022/08/17 11:37:45;;;;;;;13.38;6.00;;;;;;;;;;5069604;28;20036;-46
2022/08/17 11:40:26;;;;;;;12.00;5.93;;;;;;;;;;4355540;28;10000399;-42
2022/08/17 11:43:04;;;;;;;16.40;6.82;;;;;;;;;;5065850;28;20040;-43
2022/08/17 11:45:39;;;;;;;11.25;5.20;;;;;;;;;;5069006;28;20059;-43
2022/08/17 11:53:57;;;;;;;11.55;5.45;;;;;;;;;;5041709;28;20059;-44
2022/08/17 11:56:31;;;;;;;12.93;5.90;;;;;;;;;;5047221;28;20111;-42
2022/08/17 11:59:00;;;;;;;12.93;5.63;;;;;;;;;;5066010;28;20040;-42
2022/08/17 12:01:57;;;;;;;11.07;5.38;;;;;;;;;;5047511;28;20059;-44
2022/08/17 12:04:27;;;;;;;11.90;4.70;;;;;;;;;;5016050;28;20037;-41
2022/08/17 12:06:55;;;;;;;10.13;4.38;;;;;;;;;;5060095;28;20057;-42
2022/08/17 12:09:25;;;;;;;11.50;4.18;;;;;;;;;;5062735;28;20064;-43
2022/08/17 12:11:54;;;;;;;10.13;3.92;;;;;;;;;;5058156;28;20040;-43
2022/08/17 12:14:25;;;;;;;7.93;4.23;;;;;;;;;;4712322;28;10000220;-42
2022/08/17 12:17:03;;;;;;;9.90;3.90;;;;;;;;;;5060879;28;20109;-42
2022/08/17 12:19:32;;;;;;;8.85;3.90;;;;;;;;;;5060111;28;20036;-42
2022/08/17 12:22:02;;;;;;;8.47;3.90;;;;;;;;;;5057957;28;20075;-42
2022/08/17 12:24:34;;;;;;;10.50;3.88;;;;;;;;;;5065493;28;20040;-42
2022/08/17 12:27:04;;;;;;;7.63;3.30;;;;;;;;;;5059816;28;20060;-43
2022/08/17 12:29:32;;;;;;;9.40;4.13;;;;;;;;;;5078902;28;20040;-41
2022/08/17 12:32:00;;;;;;;10.93;4.18;;;;;;;;;;5048898;28;20044;-42
2022/08/17 12:34:29;;;;;;;8.67;3.53;;;;;;;;;;5056511;28;20048;-41
2022/08/17 12:36:58;;;;;;;7.45;3.33;;;;;;;;;;5051496;28;20043;-41
2022/08/17 12:39:25;;;;;;;7.45;3.78;;;;;;;;;;5069063;28;20145;-41
2022/08/17 12:41:53;;;;;;;11.60;3.22;;;;;;;;;;5074164;28;20061;-41
2022/08/17 12:44:20;;;;;;;10.05;3.28;;;;;;;;;;5058966;28;20285;-42
2022/08/17 12:46:50;;;;;;;8.60;3.67;;;;;;;;;;5065222;28;20068;-42
2022/08/17 12:49:22;;;;;;;7.93;3.42;;;;;;;;;;5056776;28;20037;-41
2022/08/17 12:51:49;;;;;;;6.63;2.78;;;;;;;;;;5062404;28;20040;-42
2022/08/17 12:54:24;;;;;;;6.93;2.95;;;;;;;;;;5051659;28;20765;-42
2022/08/17 12:56:51;;;;;;;6.55;2.88;;;;;;;;;;5066601;28;20050;-41
2022/08/17 12:59:18;;;;;;;7.20;2.70;;;;;;;;;;5066620;28;20051;-41
2022/08/17 13:01:46;;;;;;;6.95;3.10;;;;;;;;;;5052475;28;20041;-41
2022/08/17 13:04:15;;;;;;;11.40;3.05;;;;;;;;;;5064674;28;20094;-42
2022/08/17 13:06:46;;;;;;;7.10;2.67;;;;;;;;;;5066185;28;20058;-41
2022/08/17 13:09:13;;;;;;;7.15;2.60;;;;;;;;;;5056863;28;20477;-42
2022/08/17 13:11:46;;;;;;;6.30;2.50;;;;;;;;;;5037256;28;20059;-43
2022/08/17 13:14:14;;;;;;;7.38;2.40;;;;;;;;;;5059018;28;20040;-44
2022/08/17 13:16:47;;;;;;;6.68;2.53;;;;;;;;;;5055611;28;20064;-43
2022/08/17 13:19:20;;;;;;;6.47;2.40;;;;;;;;;;5054356;28;20152;-43
2022/08/17 13:21:49;;;;;;;6.50;2.80;;;;;;;;;;5064116;28;20044;-43
2022/08/17 13:24:18;;;;;;;6.10;2.17;;;;;;;;;;5064535;28;20520;-41
2022/08/17 13:26:48;;;;;;;6.93;2.30;;;;;;;;;;5050348;28;20060;-42
2022/08/17 13:29:22;;;;;;;5.65;2.38;;;;;;;;;;5064445;28;20425;-41
2022/08/17 13:31:51;;;;;;;5.25;2.25;;;;;;;;;;5055234;28;20040;-43
2022/08/17 13:34:30;;;;;;;7.90;2.58;;;;;;;;;;5052962;28;20325;-41
2022/08/17 13:37:12;;;;;;;6.13;2.10;;;;;;;;;;5048449;28;20137;-47
2022/08/17 13:39:41;;;;;;;5.35;2.15;;;;;;;;;;5058024;28;20633;-42
2022/08/17 13:42:23;;;;;;;7.05;2.10;;;;;;;;;;5063911;28;20047;-44
2022/08/17 13:44:49;;;;;;;6.28;2.80;;;;;;;;;;5061284;28;20082;-43
2022/08/17 13:47:16;;;;;;;5.97;2.97;;;;;;;;;;5060275;28;20466;-44
2022/08/17 13:49:46;;;;;;;6.03;2.17;;;;;;;;;;5044942;28;20484;-42
2022/08/17 13:52:29;;;;;;;6.40;2.08;;;;;;;;;;5062238;28;20032;-43
2022/08/17 13:54:57;;;;;;;5.55;2.17;;;;;;;;;;5057303;28;20975;-42
2022/08/17 13:57:25;;;;;;;6.05;2.22;;;;;;;;;;5058686;28;20093;-42
2022/08/17 13:59:54;;;;;;;6.45;2.22;;;;;;;;;;5056784;28;21249;-42
2022/08/17 14:02:21;;;;;;;6.57;1.70;;;;;;;;;;5048413;28;20048;-41
2022/08/17 14:04:49;;;;;;;5.93;1.95;;;;;;;;;;5058152;28;20106;-41
2022/08/17 14:07:32;;;;;;;5.68;1.90;;;;;;;;;;5050420;28;20444;-42
2022/08/17 14:10:00;;;;;;;6.47;2.38;;;;;;;;;;5060607;28;20048;-41
2022/08/17 14:12:28;;;;;;;7.43;2.45;;;;;;;;;;5060860;28;20059;-43
2022/08/17 14:14:55;;;;;;;8.77;2.60;;;;;;;;;;4361614;28;10000884;-41
2022/08/17 14:17:22;;;;;;;8.40;2.25;;;;;;;;;;5039887;28;20621;-42
2022/08/17 14:19:49;;;;;;;6.45;2.40;;;;;;;;;;5063862;28;20661;-43
2022/08/17 14:22:18;;;;;;;5.57;2.13;;;;;;;;;;5058497;28;20362;-44
2022/08/17 14:24:45;;;;;;;5.90;2.15;;;;;;;;;;5062852;28;20141;-43
2022/08/17 14:27:12;;;;;;;6.28;2.60;;;;;;;;;;5042757;28;22367;-45
2022/08/17 14:29:39;;;;;;;6.82;2.40;;;;;;;;;;5062671;28;20194;-44
2022/08/17 14:32:07;;;;;;;7.53;2.63;;;;;;;;;;5050944;28;20423;-43
2022/08/17 14:34:34;;;;;;;8.10;2.77;;;;;;;;;;5058343;28;20580;-41
2022/08/17 14:37:02;;;;;;;5.78;2.15;;;;;;;;;;5020891;28;20127;-42
2022/08/17 14:39:31;;;;;;;5.55;2.30;;;;;;;;;;5055981;28;20044;-43
2022/08/17 14:41:57;;;;;;;5.60;2.63;;;;;;;;;;5066046;28;20533;-41
2022/08/17 14:44:24;;;;;;;5.78;2.50;;;;;;;;;;5058506;28;20056;-43
2022/08/17 14:46:51;;;;;;;7.03;2.63;;;;;;;;;;5065212;28;20047;-42
2022/08/17 14:49:18;;;;;;;7.88;2.97;;;;;;;;;;5076715;28;20066;-43
2022/08/17 14:51:45;;;;;;;7.15;2.55;;;;;;;;;;5065191;28;20036;-41
2022/08/17 14:54:12;;;;;;;6.68;2.20;;;;;;;;;;5062278;28;20033;-41
2022/08/17 14:56:39;;;;;;;9.45;2.70;;;;;;;;;;5071287;28;20040;-41
2022/08/17 14:59:06;;;;;;;7.10;2.60;;;;;;;;;;5051537;28;20097;-43
2022/08/17 15:01:34;;;;;;;7.40;2.67;;;;;;;;;;5070273;28;20070;-42
2022/08/17 15:04:00;;;;;;;6.53;2.75;;;;;;;;;;5053011;28;21821;-43
2022/08/17 15:06:27;;;;;;;5.78;2.83;;;;;;;;;;5054551;28;20143;-41
2022/08/17 15:08:55;;;;;;;10.88;2.65;;;;;;;;;;5035519;28;20070;-43